createdAt,value
2022-11-23T00:01:15.841Z,3.30
2022-11-23T00:03:43.500Z,4.63
2022-11-23T00:06:10.293Z,3.43
2022-11-23T00:08:37.271Z,3.67
2022-11-23T00:11:04.606Z,3.53
2022-11-23T00:13:31.519Z,3.73
2022-11-23T00:15:58.282Z,3.93
2022-11-23T00:18:24.991Z,3.40
2022-11-23T00:20:51.751Z,3.10
2022-11-23T00:23:18.441Z,3.30
2022-11-23T00:25:46.801Z,3.60
2022-11-23T00:28:13.635Z,3.23
2022-11-23T00:30:40.405Z,3.37
2022-11-23T00:33:07.280Z,3.53
2022-11-23T00:35:34.156Z,3.03
2022-11-23T00:38:00.914Z,3.67
2022-11-23T00:40:27.666Z,3.67
2022-11-23T00:42:54.340Z,3.60
2022-11-23T00:45:21.054Z,4.03
2022-11-23T00:47:47.765Z,3.30
2022-11-23T00:50:14.567Z,3.10
2022-11-23T00:52:41.267Z,3.60
2022-11-23T00:55:08.406Z,3.67
2022-11-23T00:57:35.374Z,3.27
2022-11-23T01:00:02.805Z,2.70
2022-11-23T01:02:31.110Z,3.17
2022-11-23T01:04:57.802Z,3.67
2022-11-23T01:07:24.655Z,3.43
2022-11-23T01:09:51.499Z,3.30
2022-11-23T01:12:18.234Z,4.40
2022-11-23T01:14:44.978Z,3.10
2022-11-23T01:17:11.737Z,2.90
2022-11-23T01:19:38.442Z,3.27
2022-11-23T01:22:05.204Z,3.53
2022-11-23T01:24:32.149Z,3.07
2022-11-23T01:26:58.823Z,3.20
2022-11-23T01:29:25.957Z,2.93
2022-11-23T01:31:52.730Z,3.30
2022-11-23T01:34:19.528Z,3.63
2022-11-23T01:36:46.430Z,3.07
2022-11-23T01:39:14.308Z,3.40
2022-11-23T01:41:42.990Z,3.57
2022-11-23T01:44:32.016Z,3.73
2022-11-23T01:47:01.863Z,3.20
2022-11-23T01:49:35.510Z,3.13
2022-11-23T01:52:25.785Z,3.70
2022-11-23T01:54:55.819Z,3.70
2022-11-23T01:57:28.576Z,3.43
2022-11-23T01:59:56.344Z,3.20
2022-11-23T02:02:23.732Z,3.17
2022-11-23T02:04:53.611Z,3.50
2022-11-23T02:07:21.828Z,3.43
2022-11-23T02:09:49.107Z,3.70
2022-11-23T02:12:16.319Z,3.40
2022-11-23T02:14:43.572Z,3.40
2022-11-23T02:17:10.708Z,3.37
2022-11-23T02:19:55.397Z,3.33
2022-11-23T02:23:12.109Z,3.23
2022-11-23T02:25:47.370Z,2.83
2022-11-23T02:28:43.356Z,2.63
2022-11-23T02:31:10.191Z,2.93
2022-11-23T02:33:40.624Z,3.27
2022-11-23T02:36:26.187Z,3.03
2022-11-23T02:38:54.619Z,3.50
2022-11-23T02:41:21.376Z,3.20
2022-11-23T02:43:51.867Z,3.70
2022-11-23T02:46:18.618Z,3.40
2022-11-23T02:48:45.336Z,3.23
2022-11-23T02:51:12.050Z,2.97
2022-11-23T02:53:38.800Z,3.80
2022-11-23T02:56:05.860Z,3.40
2022-11-23T02:58:32.882Z,3.60
2022-11-23T03:00:59.673Z,2.93
2022-11-23T03:03:26.493Z,3.40
2022-11-23T03:05:53.217Z,3.90
2022-11-23T03:08:19.979Z,3.77
2022-11-23T03:10:46.711Z,3.37
2022-11-23T03:13:13.758Z,3.50
2022-11-23T03:15:40.812Z,3.17
2022-11-23T03:18:07.807Z,3.20
2022-11-23T03:20:34.607Z,3.37
2022-11-23T03:23:01.325Z,3.47
2022-11-23T03:25:28.161Z,3.37
2022-11-23T03:27:54.900Z,3.37
2022-11-23T03:30:21.686Z,3.40
2022-11-23T03:32:48.364Z,3.30
2022-11-23T03:35:15.195Z,3.17
2022-11-23T03:37:42.182Z,3.20
2022-11-23T03:40:09.862Z,3.07
2022-11-23T03:42:36.667Z,2.80
2022-11-23T03:45:03.685Z,2.63
2022-11-23T03:47:30.564Z,3.10
2022-11-23T03:49:57.287Z,3.20
2022-11-23T03:52:23.942Z,3.57
2022-11-23T03:54:50.786Z,3.67
2022-11-23T03:57:17.495Z,2.80
2022-11-23T03:59:44.228Z,2.90
2022-11-23T04:02:11.041Z,3.73
2022-11-23T04:04:37.794Z,3.33
2022-11-23T04:07:04.684Z,3.10
2022-11-23T04:09:31.821Z,2.70
2022-11-23T04:11:58.768Z,2.90
2022-11-23T04:14:25.560Z,3.27
2022-11-23T04:16:52.508Z,3.20
2022-11-23T04:19:19.214Z,3.67
2022-11-23T04:21:46.064Z,3.00
2022-11-23T04:24:12.901Z,3.30
2022-11-23T04:26:40.576Z,3.50
2022-11-23T04:29:07.368Z,3.10
2022-11-23T04:31:34.287Z,3.60
2022-11-23T04:34:00.999Z,3.87
2022-11-23T04:36:28.124Z,4.07
2022-11-23T04:38:54.935Z,4.17
2022-11-23T04:41:22.343Z,3.90
2022-11-23T04:43:49.495Z,3.53
2022-11-23T04:46:16.300Z,3.43
2022-11-23T04:48:46.332Z,3.50
2022-11-23T04:51:13.750Z,4.00
2022-11-23T04:53:40.940Z,3.30
2022-11-23T04:56:08.125Z,3.93
2022-11-23T04:58:36.843Z,3.87
2022-11-23T05:01:04.911Z,4.00
2022-11-23T05:03:34.970Z,4.60
2022-11-23T05:06:03.033Z,4.03
2022-11-23T05:08:30.624Z,3.97
2022-11-23T05:10:57.870Z,3.30
2022-11-23T05:13:24.734Z,3.33
2022-11-23T05:15:51.501Z,3.70
2022-11-23T05:18:18.397Z,3.90
2022-11-23T05:20:46.035Z,3.67
2022-11-23T05:23:13.072Z,3.50
2022-11-23T05:25:40.052Z,3.40
2022-11-23T05:28:30.100Z,4.00
2022-11-23T05:30:54.621Z,3.30
2022-11-23T05:33:21.309Z,3.70
2022-11-23T05:35:48.107Z,3.87
2022-11-23T05:38:14.824Z,4.20
2022-11-23T05:40:41.549Z,3.40
2022-11-23T05:43:08.639Z,4.03
2022-11-23T05:45:35.390Z,4.00
2022-11-23T05:48:02.172Z,4.77
2022-11-23T05:50:29.301Z,4.67
2022-11-23T05:52:57.673Z,5.60
2022-11-23T05:55:25.294Z,5.07
2022-11-23T05:57:52.245Z,5.60
2022-11-23T06:00:19.856Z,6.20
2022-11-23T06:02:46.594Z,4.90
2022-11-23T06:05:13.329Z,5.10
2022-11-23T06:07:40.087Z,4.87
2022-11-23T06:10:07.425Z,4.20
2022-11-23T06:12:34.236Z,4.83
2022-11-23T06:15:01.125Z,4.37
2022-11-23T06:17:27.970Z,4.67
2022-11-23T06:19:54.684Z,5.67
2022-11-23T06:22:21.330Z,5.03
2022-11-23T06:24:48.030Z,5.60
2022-11-23T06:27:18.333Z,5.07
2022-11-23T06:29:46.953Z,5.37
2022-11-23T06:32:14.408Z,5.27
2022-11-23T06:34:41.111Z,7.10
2022-11-23T06:37:07.797Z,7.37
2022-11-23T06:39:34.769Z,8.57
2022-11-23T06:42:23.349Z,8.93
2022-11-23T06:44:48.342Z,9.67
2022-11-23T06:47:17.271Z,9.43
2022-11-23T06:49:45.793Z,9.87
2022-11-23T06:52:13.818Z,10.23
2022-11-23T06:54:40.659Z,8.10
2022-11-23T06:57:10.773Z,8.80
2022-11-23T06:59:41.850Z,7.20
2022-11-23T07:02:11.881Z,6.67
2022-11-23T07:04:38.757Z,6.03
2022-11-23T07:07:07.325Z,6.70
2022-11-23T07:09:34.649Z,4.80
2022-11-23T07:12:01.703Z,4.93
2022-11-23T07:14:28.449Z,4.13
2022-11-23T07:16:56.018Z,5.43
2022-11-23T07:19:22.833Z,5.03
2022-11-23T07:21:49.492Z,4.50
2022-11-23T07:24:16.241Z,5.10
2022-11-23T07:26:42.899Z,4.70
2022-11-23T07:29:10.457Z,3.73
2022-11-23T07:31:37.165Z,5.00
2022-11-23T07:34:05.046Z,5.30
2022-11-23T07:36:31.887Z,4.60
2022-11-23T07:38:58.599Z,4.40
2022-11-23T07:41:27.399Z,5.20
2022-11-23T07:43:54.571Z,4.80
2022-11-23T07:46:21.910Z,3.83
2022-11-23T07:48:48.710Z,4.30
2022-11-23T07:51:16.460Z,4.17
2022-11-23T07:53:43.200Z,3.83
2022-11-23T07:56:09.986Z,4.10
2022-11-23T07:58:36.764Z,4.80
2022-11-23T08:01:03.619Z,4.00
2022-11-23T08:03:30.791Z,4.50
2022-11-23T08:05:57.704Z,3.77
2022-11-23T08:08:24.468Z,4.07
2022-11-23T08:10:53.832Z,3.73
2022-11-23T08:13:21.492Z,4.13
2022-11-23T08:15:53.846Z,4.37
2022-11-23T08:18:22.361Z,4.13
2022-11-23T08:20:49.033Z,4.50
2022-11-23T08:23:15.681Z,4.30
2022-11-23T08:25:42.469Z,4.60
2022-11-23T08:28:09.738Z,4.50
2022-11-23T08:30:36.806Z,3.73
2022-11-23T08:33:08.497Z,3.60
2022-11-23T08:35:39.811Z,3.90
2022-11-23T08:38:08.783Z,3.70
2022-11-23T08:40:36.847Z,3.23
2022-11-23T08:43:04.092Z,3.60
2022-11-23T08:45:31.066Z,3.60
2022-11-23T08:48:04.712Z,3.10
2022-11-23T08:50:34.379Z,2.80
2022-11-23T08:53:01.200Z,3.47
2022-11-23T08:55:28.763Z,3.50
2022-11-23T08:57:57.073Z,3.17
2022-11-23T09:00:24.969Z,3.53
2022-11-23T09:02:51.768Z,3.67
2022-11-23T09:05:18.565Z,3.40
2022-11-23T09:07:45.415Z,3.23
2022-11-23T09:10:17.784Z,3.93
2022-11-23T09:12:45.530Z,3.40
2022-11-23T09:15:12.248Z,3.47
2022-11-23T09:17:38.977Z,3.70
2022-11-23T09:20:06.559Z,3.23
2022-11-23T09:22:33.310Z,3.73
2022-11-23T09:25:00.145Z,3.87
2022-11-23T09:27:26.960Z,3.47
2022-11-23T09:29:53.629Z,3.57
2022-11-23T09:32:20.469Z,3.97
2022-11-23T09:34:47.360Z,3.17
2022-11-23T09:37:14.611Z,3.60
2022-11-23T09:39:41.482Z,3.80
2022-11-23T09:42:38.628Z,4.40
2022-11-23T09:45:41.733Z,3.90
2022-11-23T09:48:29.989Z,3.43
2022-11-23T09:51:02.616Z,3.50
2022-11-23T09:53:56.460Z,4.00
2022-11-23T09:56:30.014Z,3.87
2022-11-23T09:58:59.399Z,3.57
2022-11-23T10:01:30.847Z,3.70
2022-11-23T10:03:58.203Z,3.70
2022-11-23T10:06:27.760Z,3.77
2022-11-23T10:09:31.946Z,3.63
2022-11-23T10:12:06.395Z,3.90
2022-11-23T10:14:45.313Z,4.60
2022-11-23T10:17:18.413Z,3.30
2022-11-23T10:20:12.303Z,3.37
2022-11-23T10:22:49.514Z,3.23
2022-11-23T10:25:18.836Z,3.47
2022-11-23T10:27:49.401Z,3.03
2022-11-23T10:30:17.981Z,3.40
2022-11-23T10:32:48.973Z,3.30
2022-11-23T10:35:17.407Z,3.47
2022-11-23T10:37:44.357Z,4.60
2022-11-23T10:40:17.001Z,3.53
2022-11-23T10:42:50.025Z,3.70
2022-11-23T10:45:23.671Z,3.83
2022-11-23T10:47:55.881Z,3.57
2022-11-23T10:50:30.218Z,3.20
2022-11-23T10:53:12.678Z,3.50
2022-11-23T10:55:55.087Z,4.00
2022-11-23T10:58:37.001Z,3.47
2022-11-23T11:01:16.341Z,4.40
2022-11-23T11:03:43.086Z,4.17
2022-11-23T11:06:11.251Z,3.43
2022-11-23T11:08:51.570Z,3.40
2022-11-23T11:11:28.832Z,3.90
2022-11-23T11:14:03.288Z,3.63
2022-11-23T11:16:36.393Z,3.20
2022-11-23T11:19:21.261Z,3.00
2022-11-23T11:21:48.159Z,3.03
2022-11-23T11:24:31.403Z,3.00
2022-11-23T11:27:01.425Z,3.37
2022-11-23T11:29:48.485Z,2.27
2022-11-23T11:32:33.140Z,2.83
2022-11-23T11:35:28.922Z,2.83
2022-11-23T11:38:08.197Z,2.90
2022-11-23T11:40:53.349Z,2.93
2022-11-23T11:43:39.799Z,2.80
2022-11-23T11:46:29.071Z,2.60
2022-11-23T11:49:05.875Z,2.60
2022-11-23T11:51:38.311Z,3.10
2022-11-23T11:54:37.292Z,2.80
2022-11-23T11:57:12.234Z,2.90
2022-11-23T11:59:43.772Z,2.97
2022-11-23T12:02:42.975Z,2.70
2022-11-23T12:05:18.704Z,3.07
2022-11-23T12:08:07.159Z,2.40
2022-11-23T12:10:38.640Z,2.50
2022-11-23T12:13:05.376Z,2.50
2022-11-23T12:15:50.958Z,2.20
2022-11-23T12:18:26.602Z,2.63
2022-11-23T12:21:11.840Z,2.10
2022-11-23T12:23:49.156Z,2.60
2022-11-23T12:26:28.538Z,2.50
2022-11-23T12:29:17.008Z,2.37
2022-11-23T12:31:54.018Z,2.10
2022-11-23T12:34:34.379Z,1.77
2022-11-23T12:37:41.891Z,1.83
2022-11-23T12:40:36.373Z,2.03
2022-11-23T12:43:35.251Z,2.53
2022-11-23T12:46:12.233Z,2.07
2022-11-23T12:49:07.255Z,2.07
2022-11-23T12:51:53.043Z,2.17
2022-11-23T12:55:03.413Z,1.80
2022-11-23T12:57:38.578Z,2.00
2022-11-23T13:00:13.038Z,2.10
2022-11-23T13:03:00.807Z,1.90
2022-11-23T13:06:00.264Z,1.73
2022-11-23T13:08:36.254Z,1.67
2022-11-23T13:11:14.970Z,1.77
2022-11-23T13:14:02.968Z,1.60
2022-11-23T13:16:59.686Z,1.90
2022-11-23T13:20:00.638Z,1.70
2022-11-23T13:22:30.037Z,2.20
2022-11-23T13:25:20.966Z,1.50
2022-11-23T13:27:50.740Z,1.70
2022-11-23T13:33:21.033Z,1.83
2022-11-23T13:36:03.789Z,1.50
2022-11-23T13:38:42.431Z,1.73
2022-11-23T13:41:33.935Z,1.57
2022-11-23T13:44:19.637Z,1.97
2022-11-23T13:47:00.459Z,1.90
2022-11-23T13:49:31.495Z,1.80
2022-11-23T13:52:20.799Z,2.10
2022-11-23T13:55:13.581Z,1.30
2022-11-23T13:57:42.651Z,1.70
2022-11-23T14:00:47.232Z,1.40
2022-11-23T14:03:52.042Z,2.00
2022-11-23T14:06:34.044Z,1.70
2022-11-23T14:09:21.318Z,2.17
2022-11-23T14:12:09.839Z,2.33
2022-11-23T14:15:03.276Z,1.90
2022-11-23T14:18:00.872Z,1.87
2022-11-23T14:20:49.407Z,1.90
2022-11-23T14:23:28.358Z,2.00
2022-11-23T14:26:19.220Z,2.10
2022-11-23T14:29:10.457Z,1.93
2022-11-23T14:31:46.953Z,1.90
2022-11-23T14:34:35.722Z,2.27
2022-11-23T14:37:23.888Z,2.30
2022-11-23T14:40:05.447Z,2.27
2022-11-23T14:42:35.308Z,1.90
2022-11-23T14:45:04.852Z,2.40
2022-11-23T14:47:32.572Z,1.87
2022-11-23T14:49:59.370Z,2.40
2022-11-23T14:52:33.647Z,2.43
2022-11-23T14:55:04.046Z,2.80
2022-11-23T14:57:41.314Z,3.00
2022-11-23T15:00:37.020Z,2.70
2022-11-23T15:03:34.528Z,2.93
2022-11-23T15:06:18.530Z,2.53
2022-11-23T15:09:10.880Z,2.73
2022-11-23T15:11:38.556Z,2.30
2022-11-23T15:14:25.263Z,2.27
2022-11-23T15:16:52.150Z,2.30
2022-11-23T15:19:27.129Z,2.57
2022-11-23T15:21:54.236Z,2.50
2022-11-23T15:24:23.342Z,2.30
2022-11-23T15:26:50.529Z,2.53
2022-11-23T15:29:30.747Z,2.73
2022-11-23T15:32:22.285Z,2.33
2022-11-23T15:34:44.683Z,2.40
2022-11-23T15:37:11.847Z,3.23
2022-11-23T15:39:39.304Z,3.30
2022-11-23T15:42:07.145Z,2.83
2022-11-23T15:44:35.924Z,3.00
2022-11-23T15:47:08.896Z,2.97
2022-11-23T15:49:40.327Z,3.03
2022-11-23T15:52:11.219Z,2.63
2022-11-23T15:54:39.102Z,2.30
2022-11-23T15:57:14.532Z,1.77
2022-11-23T15:59:46.503Z,2.53
2022-11-23T16:02:24.865Z,2.00
2022-11-23T16:05:14.680Z,2.50
2022-11-23T16:07:54.878Z,3.60
2022-11-23T16:10:26.603Z,4.63
2022-11-23T16:12:58.670Z,2.70
2022-11-23T16:15:37.648Z,2.73
2022-11-23T16:18:13.625Z,2.87
2022-11-23T16:20:49.945Z,2.97
2022-11-23T16:23:25.673Z,3.40
2022-11-23T16:25:59.030Z,2.90
2022-11-23T16:28:53.257Z,3.13
2022-11-23T16:31:40.605Z,3.67
2022-11-23T16:34:15.728Z,3.83
2022-11-23T16:36:42.412Z,3.60
2022-11-23T16:39:09.197Z,4.80
2022-11-23T16:41:36.497Z,5.00
2022-11-23T16:44:03.582Z,4.30
2022-11-23T16:46:32.000Z,4.77
2022-11-23T16:48:59.365Z,4.30
2022-11-23T16:51:26.364Z,5.13
2022-11-23T16:54:13.023Z,5.00
2022-11-23T16:56:41.068Z,4.37
2022-11-23T16:59:15.800Z,4.90
2022-11-23T17:01:43.806Z,4.13
2022-11-23T17:04:11.325Z,4.60
2022-11-23T17:06:38.331Z,5.63
2022-11-23T17:09:08.037Z,6.07
2022-11-23T17:11:40.020Z,5.77
2022-11-23T17:14:07.642Z,6.47
2022-11-23T17:16:34.578Z,5.90
2022-11-23T17:19:01.568Z,5.13
2022-11-23T17:21:28.338Z,4.97
2022-11-23T17:23:55.152Z,4.97
2022-11-23T17:26:42.006Z,4.87
2022-11-23T17:29:16.196Z,3.47
2022-11-23T17:31:45.552Z,5.03
2022-11-23T17:34:14.192Z,3.90
2022-11-23T17:36:46.434Z,4.00
2022-11-23T17:39:21.228Z,3.10
2022-11-23T17:41:48.736Z,2.90
2022-11-23T17:44:16.348Z,2.50
2022-11-23T17:46:44.143Z,4.70
2022-11-23T17:49:18.130Z,4.83
2022-11-23T17:51:45.511Z,3.27
2022-11-23T17:54:12.787Z,3.17
2022-11-23T17:56:40.206Z,3.93
2022-11-23T17:59:07.280Z,2.90
2022-11-23T18:01:34.124Z,2.30
2022-11-23T18:04:01.419Z,2.60
2022-11-23T18:06:29.543Z,3.20
2022-11-23T18:08:57.241Z,3.23
2022-11-23T18:11:24.350Z,3.00
2022-11-23T18:13:51.644Z,3.10
2022-11-23T18:16:20.744Z,3.17
2022-11-23T18:18:47.956Z,3.90
2022-11-23T18:21:15.674Z,3.37
2022-11-23T18:23:42.732Z,3.97
2022-11-23T18:26:25.909Z,4.23
2022-11-23T18:28:53.479Z,2.80
2022-11-23T18:31:20.871Z,2.80
2022-11-23T18:33:48.081Z,3.30
2022-11-23T18:36:15.504Z,3.80
2022-11-23T18:38:44.881Z,3.20
2022-11-23T18:41:16.973Z,3.33
2022-11-23T18:43:44.822Z,5.80
2022-11-23T18:46:13.020Z,4.23
2022-11-23T18:48:40.230Z,3.30
2022-11-23T18:51:11.811Z,4.10
2022-11-23T18:53:41.254Z,4.00
2022-11-23T18:56:10.314Z,4.40
2022-11-23T18:58:40.166Z,4.83
2022-11-23T19:01:12.275Z,3.87
2022-11-23T19:03:41.559Z,4.30
2022-11-23T19:06:12.104Z,4.07
2022-11-23T19:08:40.988Z,4.20
2022-11-23T19:11:11.028Z,3.73
2022-11-23T19:13:38.715Z,4.20
2022-11-23T19:16:11.121Z,3.90
2022-11-23T19:18:38.744Z,4.63
2022-11-23T19:21:19.586Z,4.80
2022-11-23T19:23:51.608Z,4.40
2022-11-23T19:26:19.083Z,5.00
2022-11-23T19:28:46.918Z,4.07
2022-11-23T19:31:29.358Z,3.97
2022-11-23T19:34:06.008Z,3.47
2022-11-23T19:36:36.720Z,3.50
2022-11-23T19:39:08.512Z,3.80
2022-11-23T19:41:35.800Z,3.97
2022-11-23T19:44:03.015Z,4.20
2022-11-23T19:46:31.492Z,4.43
2022-11-23T19:48:59.410Z,3.67
2022-11-23T19:51:27.558Z,3.90
2022-11-23T19:53:57.173Z,3.87
2022-11-23T19:56:26.464Z,4.03
2022-11-23T19:58:56.842Z,5.03
2022-11-23T20:01:26.300Z,3.90
2022-11-23T20:03:57.321Z,4.60
2022-11-23T20:06:27.245Z,3.97
2022-11-23T20:08:55.536Z,3.83
2022-11-23T20:11:23.224Z,4.03
2022-11-23T20:13:50.839Z,3.93
2022-11-23T20:16:20.651Z,5.27
2022-11-23T20:18:53.538Z,4.17
2022-11-23T20:21:21.498Z,4.13
2022-11-23T20:23:50.648Z,3.63
2022-11-23T20:26:21.639Z,4.57
2022-11-23T20:28:53.981Z,4.17
2022-11-23T20:31:24.453Z,4.10
2022-11-23T20:33:52.594Z,3.50
2022-11-23T20:36:23.218Z,3.90
2022-11-23T20:38:51.932Z,4.20
2022-11-23T20:41:27.555Z,4.10
2022-11-23T20:44:00.471Z,3.50
2022-11-23T20:49:18.039Z,3.60
2022-11-23T20:51:45.968Z,2.70
2022-11-23T20:54:13.261Z,2.73
2022-11-23T20:56:40.557Z,3.27
2022-11-23T20:59:08.266Z,2.60
2022-11-23T21:01:35.341Z,3.30
2022-11-23T21:04:02.643Z,3.50
2022-11-23T21:06:34.453Z,3.67
2022-11-23T21:09:04.464Z,3.67
2022-11-23T21:11:49.989Z,4.13
2022-11-23T21:14:18.554Z,3.53
2022-11-23T21:16:56.194Z,3.50
2022-11-23T21:19:26.562Z,3.27
2022-11-23T21:21:54.291Z,3.50
2022-11-23T21:24:21.729Z,4.60
2022-11-23T21:26:49.247Z,3.83
2022-11-23T21:29:17.347Z,3.80
2022-11-23T21:31:46.928Z,3.03
2022-11-23T21:34:21.181Z,3.87
2022-11-23T21:36:49.471Z,4.07
2022-11-23T21:39:17.472Z,3.50
2022-11-23T21:41:46.132Z,3.17
2022-11-23T21:44:13.108Z,3.70
2022-11-23T21:46:44.330Z,4.57
2022-11-23T21:49:12.070Z,3.10
2022-11-23T21:51:39.610Z,2.73
2022-11-23T21:54:10.355Z,3.20
2022-11-23T21:56:37.600Z,2.67
2022-11-23T21:59:04.384Z,4.20
2022-11-23T22:01:33.105Z,3.70
2022-11-23T22:04:06.006Z,3.67
2022-11-23T22:06:33.023Z,5.30
2022-11-23T22:09:00.124Z,4.70
2022-11-23T22:11:32.267Z,3.63
2022-11-23T22:14:00.264Z,4.17
2022-11-23T22:16:29.797Z,4.03
2022-11-23T22:18:57.461Z,4.07
2022-11-23T22:21:26.531Z,4.67
2022-11-23T22:23:53.918Z,3.70
2022-11-23T22:26:21.446Z,3.87
2022-11-23T22:28:50.006Z,3.60
2022-11-23T22:31:22.166Z,3.93
2022-11-23T22:33:49.567Z,3.87
2022-11-23T22:36:21.804Z,2.97
2022-11-23T22:38:56.604Z,3.63
2022-11-23T22:41:28.051Z,3.47
2022-11-23T22:43:55.440Z,3.40
2022-11-23T22:46:24.250Z,4.00
2022-11-23T22:48:51.969Z,4.40
2022-11-23T22:51:23.159Z,4.90
2022-11-23T22:53:58.727Z,3.53
2022-11-23T22:56:26.615Z,4.43
2022-11-23T22:58:53.632Z,4.10
2022-11-23T23:01:23.257Z,4.07
2022-11-23T23:03:55.592Z,4.20
2022-11-23T23:06:25.251Z,4.60
2022-11-23T23:09:00.042Z,3.43
2022-11-23T23:11:28.928Z,4.53
2022-11-23T23:13:56.609Z,4.40
2022-11-23T23:16:24.109Z,4.10
2022-11-23T23:18:51.637Z,4.40
2022-11-23T23:21:22.318Z,4.30
2022-11-23T23:23:51.237Z,4.90
2022-11-23T23:26:20.133Z,5.20
2022-11-23T23:28:47.141Z,5.77
2022-11-23T23:31:16.639Z,5.60
2022-11-23T23:33:45.282Z,4.53
2022-11-23T23:36:12.266Z,4.93
2022-11-23T23:38:39.604Z,5.43
2022-11-23T23:41:08.280Z,5.50
2022-11-23T23:43:36.048Z,4.87
2022-11-23T23:46:05.956Z,5.47
2022-11-23T23:48:35.043Z,4.90
2022-11-23T23:51:06.340Z,4.13
2022-11-23T23:53:34.310Z,4.50
2022-11-23T23:56:04.254Z,5.77
2022-11-23T23:58:31.588Z,4.40
